• Join FlightAware (Why Join?)
  • Login
  • US Flag 
09:11AM EST


 

Airport Tracker/Info


-or-


 

Live Flight TrackerFlight Track Log ✈ EJA922 ✈ 24-Sep-2013 ✈ KRST - KPWK

Flight Track Log - Related Links

Times and Time Zones

All times are in EDT time to prevent confusion due to time zone crossing. See the EJA922 flight status page for this flight to view local times or setup timezone preferences in your user account.

Time Position Orientation Groundspeed Altitude Reporting Facility
EDT Latitude Longitude Course Direction KTS MPH feet Rate Location/Type
04:46PM 43.8478 -92.3519 116° Southeast 258 297 7,500  Level Minneapolis Center
04:47PM 43.8156 -92.2583 115° Southeast 278 320 10,800 2,419 Climbing Minneapolis Center
04:48PM 43.7778 -92.1467 115° Southeast 344 396 12,500 2,177 Climbing Minneapolis Center
04:49PM 43.7347 -92.0214 115° Southeast 362 417 15,300 2,855 Climbing Minneapolis Center
04:50PM 43.6986 -91.8572 107° East 378 435 18,400 2,661 Climbing Minneapolis Center
04:51PM 43.6786 -91.7133 101° East 385 443 20,800 2,177 Climbing Minneapolis Center
04:52PM 43.6558 -91.5689 102° East 385 443 22,900 1,065 Climbing Minneapolis Center
04:53PM 43.6322 -91.4094 102° East 411 473 23,000 48 Climbing Minneapolis Center
04:54PM 43.6075 -91.2356 101° East 452 520 23,000  Level Minneapolis Center
04:55PM 43.5753 -91.0286 102° East 460 529 23,000  Level Minneapolis Center
04:56PM 43.5636 -90.9597 103° East 465 535 23,000  Level Chicago Center
04:57PM 43.5378 -90.7856 102° East 467 537 23,000  Level Chicago Center
04:58PM 43.5044 -90.5772 102° East 467 537 23,000  Level Chicago Center
04:59PM 43.4789 -90.4033 101° East 466 536 23,000  Level Chicago Center
05:00PM 43.4514 -90.2339 103° East 469 540 23,000  Level Chicago Center
05:01PM 43.4228 -90.0589 103° East 470 541 23,000 -97 Level Chicago Center
05:02PM 43.3883 -89.8497 103° East 470 541 22,800 -823 Descending Chicago Center
05:03PM 43.3597 -89.6769 103° East 467 537 21,300 -1,403 Descending Chicago Center
05:04PM 43.3292 -89.5081 104° East 460 529 19,900 -1,403 Descending Chicago Center
05:05PM 43.3011 -89.3433 103° East 448 516 18,400 -1,440 Descending Chicago Center
05:06PM 43.2747 -89.1806 102° East 442 509 16,900 -1,392 Descending Chicago Center
05:07PM 43.2467 -89.0192 103° East 440 506 15,500 -1,500 Descending Chicago Center
05:08PM 43.2150 -88.8381 103° East 419 482 13,800 -1,161 Descending Chicago Center
05:09PM 43.1900 -88.6953 103° East 399 459 13,100 -339 Descending Chicago Center
05:10PM 43.1639 -88.5481 104° East 401 461 13,100 -48 Level Chicago Center
05:11PM 43.1347 -88.3953 105° East 417 480 13,000 -339 Descending Chicago Center
05:12PM 43.0608 -88.2497 125° Southeast 414 476 12,400 -871 Descending Chicago Center
05:13PM 42.9597 -88.1900 157° South 400 460 11,200 -1,056 Descending Chicago Center
05:14PM 42.8611 -88.1336 157° South 388 447 10,200 -774 Descending Chicago Center
05:15PM 42.7822 -88.0931 159° South 307 353 9,600 -1,171 Descending Chicago Center
05:16PM 42.7067 -88.0744 170° South 280 322 7,800 -1,728 Descending Chicago Center
05:17PM 42.6319 -88.0544 169° South 275 316 6,000 -1,872 Descending Chicago Center
05:19PM 42.5461 -88.0294 168° South 266 306 3,900 -1,016 Descending Chicago Center
05:20PM 42.4881 -88.0264 178° South 227 261 3,900  Level Chicago Center
05:21PM 42.4297 -88.0239 178° South 212 244 3,900  Level Chicago Center
05:22PM 42.3697 -88.0242 180° South 213 245 3,900  Level Chicago Center
05:23PM 42.3133 -88.0181 175° South 210 242 3,900 -194 Level Chicago Center
05:24PM 42.2625 -87.9844 154° Southeast 204 235 3,500 -774 Descending Chicago Center
05:25PM 42.2003 -87.9475 156° South 204 235 2,300 -823 Descending Chicago Center
05:26PM 42.1550 -87.9217 157° South 202 232 1,800 -484 Descending Chicago Center